Impacts TAF Board INFO
FOR SITUATIONAL AWARENESS. NOT TO BE USED FOR FLIGHT PLANNING PURPOSES.
IDs:

KPIT - Pittsburgh Intl, PA, US

Issued at 2056 UTC 19 Jul 2018
Updated at 2314 UTC 19 Jul 2018
Potential Impact None Slight Moderate High
Time2251Z 20/00Z 20/01Z 20/02Z 20/03Z 20/04Z 20/05Z 20/06Z 20/07Z 20/08Z 20/09Z 20/10Z 20/11Z 20/12Z>>
Type OBS PRVL PRVL PRVL PRVL PRVL PRVL PRVL PRVL PRVL PRVL PRVL PRVL PRVL
VIS 10 >6 >6 >6 >6 >6 >6 >6 >6 >6 >6 >6 >6 >6
CIG -- -- -- -- -- -- -- -- -- -- -- -- -- --
Cover SCT SCT SCT SCT SCT SCT SCT SCT SCT SCT SCT SCT SCT SCT
FltCat VFR VFR VFR VFR VFR VFR VFR VFR VFR VFR VFR VFR VFR VFR
WX -- -- -- -- -- -- -- -- -- -- -- -- -- --
WDir 160 180 180 180 180 180 180 180 180 180 180 180 180 180
WSpd 5 4 4 4 4 4 4 4 4 4 4 4 4 4
WGst -- -- -- -- -- -- -- -- -- -- -- -- -- --

Raw TAF
KPIT 192056Z 1921/2024 18004KT P6SM SCT250
  FM201500 18009KT P6SM BKN120
  FM202200 17009KT P6SM VCTS BKN050CB


Raw METAR
KPIT 192251Z 16005KT 10SM SCT250 27/12 A3003 RMK AO2 SLP169 T02720122
KPIT 192151Z VRB04KT 10SM BKN250 28/12 A3005 RMK AO2 SLP175 T02780122
KPIT 192051Z 00000KT 10SM BKN250 27/11 A3005 RMK AO2 SLP177 T02720106 56012

METAR Board
Radar Display
Forecast Discussion

FOR SITUATIONAL AWARENESS. NOT TO BE USED FOR FLIGHT PLANNING PURPOSES.